Time;durP1;ratioP1;P1;durP2;ratioP2;P2;SDS_P1;SDS_P2;PMS_P1;PMS_P2;Temp;Humidity;BMP_temperature;BMP_pressure;BME280_temperature;BME280_humidity;BME280_pressure;Samples;Min_cycle;Max_cycle;Signal;HPM_P1;HPM_P2
2022/09/03 00:02:10;;;;;;;5.00;0.90;;;;;;;;;;108263;1301;23110;-28
2022/09/03 00:04:42;;;;;;;2.40;0.60;;;;;;;;;;108300;1302;22524;-25
2022/09/03 00:07:12;;;;;;;2.20;0.80;;;;;;;;;;108372;1301;22578;-25
2022/09/03 00:09:41;;;;;;;7.60;5.10;;;;;;;;;;108332;1301;23228;-28
2022/09/03 00:12:10;;;;;;;4.60;3.90;;;;;;;;;;108258;1301;23123;-28
2022/09/03 00:14:39;;;;;;;0.90;0.30;;;;;;;;;;108216;1309;22571;-25
2022/09/03 00:17:06;;;;;;;1.80;0.30;;;;;;;;;;108309;1301;22942;-27
2022/09/03 00:19:35;;;;;;;3.00;2.60;;;;;;;;;;108069;1301;22534;-28
2022/09/03 00:22:06;;;;;;;4.50;4.10;;;;;;;;;;107756;1302;22559;-25
2022/09/03 00:24:33;;;;;;;2.60;2.10;;;;;;;;;;108095;1301;23055;-28
2022/09/03 00:26:59;;;;;;;3.00;2.10;;;;;;;;;;108299;1294;23191;-28
2022/09/03 00:29:28;;;;;;;2.40;1.60;;;;;;;;;;108294;1301;23110;-24
2022/09/03 00:31:55;;;;;;;2.30;1.60;;;;;;;;;;108264;1301;22359;-24
2022/09/03 00:34:20;;;;;;;1.70;1.10;;;;;;;;;;108299;1301;23284;-27
2022/09/03 00:36:46;;;;;;;2.30;0.80;;;;;;;;;;108305;1302;22291;-28
2022/09/03 00:39:12;;;;;;;9.00;7.80;;;;;;;;;;108304;1301;22390;-27
2022/09/03 00:41:44;;;;;;;43.30;30.40;;;;;;;;;;108325;1301;22923;-27
2022/09/03 00:44:13;;;;;;;32.80;25.40;;;;;;;;;;108358;1301;22664;-24
2022/09/03 00:46:41;;;;;;;18.00;15.90;;;;;;;;;;108290;1302;23170;-30
2022/09/03 00:49:11;;;;;;;10.60;4.70;;;;;;;;;;108293;1301;22763;-30
2022/09/03 00:51:41;;;;;;;8.60;7.50;;;;;;;;;;108291;1302;22225;-27
2022/09/03 00:54:10;;;;;;;1.20;0.70;;;;;;;;;;108309;1302;22256;-30
2022/09/03 00:56:39;;;;;;;1.10;0.60;;;;;;;;;;108260;1308;22467;-26
2022/09/03 00:59:25;;;;;;;4.40;1.00;;;;;;;;;;108034;1302;23063;-30
2022/09/03 01:01:54;;;;;;;1.70;0.70;;;;;;;;;;108319;1302;22345;-27
2022/09/03 01:04:23;;;;;;;1.90;0.90;;;;;;;;;;108292;1302;22550;-27
2022/09/03 01:06:52;;;;;;;2.50;0.70;;;;;;;;;;108289;1301;22478;-27
2022/09/03 01:09:23;;;;;;;3.70;2.40;;;;;;;;;;108307;1302;23546;-30
2022/09/03 01:11:54;;;;;;;2.60;2.10;;;;;;;;;;108311;1301;22422;-30
2022/09/03 01:14:20;;;;;;;8.30;0.70;;;;;;;;;;108317;1301;23303;-30
2022/09/03 01:16:47;;;;;;;2.40;2.10;;;;;;;;;;108245;1302;22211;-27
2022/09/03 01:19:24;;;;;;;1.50;1.00;;;;;;;;;;108285;1302;25213;-30
2022/09/03 01:22:04;;;;;;;4.90;2.40;;;;;;;;;;108003;1286;22962;-25
2022/09/03 01:24:33;;;;;;;2.70;1.00;;;;;;;;;;108385;1301;22498;-28
2022/09/03 01:27:04;;;;;;;2.20;1.10;;;;;;;;;;108259;1308;22258;-28
2022/09/03 01:29:34;;;;;;;7.00;5.20;;;;;;;;;;108297;1301;22452;-28
2022/09/03 01:32:00;;;;;;;3.60;3.20;;;;;;;;;;108302;1302;22718;-28
2022/09/03 01:34:44;;;;;;;2.30;2.10;;;;;;;;;;108295;1301;23371;-25
2022/09/03 01:37:09;;;;;;;;;;;;;;;;;;108335;1301;22572;-28
2022/09/03 01:39:38;;;;;;;2.20;0.90;;;;;;;;;;108350;1301;23221;-28
2022/09/03 01:42:14;;;;;;;4.40;3.00;;;;;;;;;;108269;1301;22460;-28
2022/09/03 01:44:47;;;;;;;2.90;1.60;;;;;;;;;;108305;1301;23188;-28
2022/09/03 01:47:16;;;;;;;3.00;1.30;;;;;;;;;;108327;1301;22396;-25
2022/09/03 01:49:45;;;;;;;1.40;0.90;;;;;;;;;;108278;1301;22459;-25
2022/09/03 01:52:15;;;;;;;3.50;1.30;;;;;;;;;;108279;1302;23170;-25
2022/09/03 01:54:49;;;;;;;5.70;0.60;;;;;;;;;;108156;1302;23222;-25
2022/09/03 01:57:19;;;;;;;2.90;1.00;;;;;;;;;;108298;1302;23355;-25
2022/09/03 01:59:58;;;;;;;2.80;1.00;;;;;;;;;;108320;1302;23245;-28
2022/09/03 02:02:24;;;;;;;3.00;0.70;;;;;;;;;;108262;1308;23226;-28
2022/09/03 02:04:53;;;;;;;2.70;0.50;;;;;;;;;;108311;1301;23160;-25
2022/09/03 02:07:20;;;;;;;1.60;0.80;;;;;;;;;;107979;1308;23195;-25
2022/09/03 02:09:45;;;;;;;1.50;1.10;;;;;;;;;;108276;1302;22178;-25
2022/09/03 02:12:13;;;;;;;2.20;1.00;;;;;;;;;;108281;1302;22393;-25
2022/09/03 02:14:39;;;;;;;2.10;0.80;;;;;;;;;;108293;1301;23087;-25
2022/09/03 02:17:04;;;;;;;2.00;0.70;;;;;;;;;;108265;1302;22962;-25
2022/09/03 02:19:30;;;;;;;1.90;1.10;;;;;;;;;;108273;1302;23653;-28
2022/09/03 02:21:56;;;;;;;3.50;0.80;;;;;;;;;;108336;1301;22489;-25
2022/09/03 02:24:22;;;;;;;2.20;1.10;;;;;;;;;;108217;1302;22579;-28
2022/09/03 02:26:48;;;;;;;3.70;0.70;;;;;;;;;;108273;1302;22399;-24
2022/09/03 02:29:14;;;;;;;4.10;0.70;;;;;;;;;;108243;1308;22410;-25
2022/09/03 02:31:40;;;;;;;7.80;1.00;;;;;;;;;;108267;1302;22544;-28
2022/09/03 02:34:05;;;;;;;1.40;0.60;;;;;;;;;;108226;1301;23068;-28
2022/09/03 02:36:32;;;;;;;0.50;0.40;;;;;;;;;;108229;1302;23313;-25
2022/09/03 02:38:58;;;;;;;1.50;0.50;;;;;;;;;;108208;1301;22534;-28
2022/09/03 02:41:26;;;;;;;2.40;0.70;;;;;;;;;;107531;1302;1002691;-25
2022/09/03 02:43:55;;;;;;;0.80;0.30;;;;;;;;;;108315;1301;22884;-25
2022/09/03 02:46:22;;;;;;;2.60;0.90;;;;;;;;;;108275;1301;22561;-24
2022/09/03 02:48:47;;;;;;;1.30;0.60;;;;;;;;;;107145;1302;1002521;-28
2022/09/03 02:51:13;;;;;;;7.50;0.60;;;;;;;;;;108319;1308;23180;-25
2022/09/03 02:53:38;;;;;;;3.20;0.80;;;;;;;;;;108277;1302;22925;-28
2022/09/03 02:56:04;;;;;;;1.10;0.50;;;;;;;;;;108341;1301;22663;-28
2022/09/03 02:58:30;;;;;;;3.10;0.60;;;;;;;;;;108326;1302;22460;-26
2022/09/03 03:00:56;;;;;;;1.60;0.90;;;;;;;;;;108304;1301;23068;-28
2022/09/03 03:03:21;;;;;;;2.50;1.10;;;;;;;;;;108316;1301;23835;-24
2022/09/03 03:05:47;;;;;;;3.10;1.10;;;;;;;;;;108303;1302;22412;-25
2022/09/03 03:08:13;;;;;;;1.00;0.50;;;;;;;;;;108297;1301;22216;-25
2022/09/03 03:10:40;;;;;;;4.70;0.90;;;;;;;;;;108193;1301;22202;-25
2022/09/03 03:13:05;;;;;;;6.30;0.90;;;;;;;;;;108316;1301;23187;-28
2022/09/03 03:15:31;;;;;;;3.60;0.70;;;;;;;;;;108309;1301;23011;-25
2022/09/03 03:17:56;;;;;;;1.90;0.80;;;;;;;;;;108313;1301;22762;-28
2022/09/03 03:20:22;;;;;;;7.90;1.10;;;;;;;;;;107345;1301;1002623;-28
2022/09/03 03:22:47;;;;;;;1.60;0.90;;;;;;;;;;108263;1301;22433;-25
2022/09/03 03:25:13;;;;;;;1.50;0.90;;;;;;;;;;108311;1301;22487;-25
2022/09/03 03:27:42;;;;;;;1.80;1.10;;;;;;;;;;108148;1301;22535;-28
2022/09/03 03:30:09;;;;;;;1.60;0.70;;;;;;;;;;108188;1302;23153;-28
2022/09/03 03:32:36;;;;;;;1.80;0.90;;;;;;;;;;108289;1301;23292;-28
2022/09/03 03:35:01;;;;;;;1.60;0.90;;;;;;;;;;108316;1302;23152;-24
2022/09/03 03:37:27;;;;;;;2.20;1.00;;;;;;;;;;108267;1309;22522;-28
2022/09/03 03:39:52;;;;;;;4.40;1.00;;;;;;;;;;108158;1286;23543;-28
2022/09/03 03:42:18;;;;;;;2.10;0.80;;;;;;;;;;108333;1301;22435;-24
2022/09/03 03:44:44;;;;;;;1.30;0.80;;;;;;;;;;108283;1301;22549;-25
2022/09/03 03:47:09;;;;;;;1.20;0.90;;;;;;;;;;108253;1300;22432;-28
2022/09/03 03:49:35;;;;;;;2.60;0.90;;;;;;;;;;108329;1302;23067;-25
2022/09/03 03:52:02;;;;;;;1.10;0.90;;;;;;;;;;108308;1301;23288;-25
2022/09/03 03:54:27;;;;;;;1.30;0.80;;;;;;;;;;108298;1301;22435;-28
2022/09/03 03:56:52;;;;;;;2.10;0.90;;;;;;;;;;108320;1301;23232;-28
2022/09/03 03:59:18;;;;;;;2.10;0.60;;;;;;;;;;108271;1308;22379;-24
2022/09/03 04:01:43;;;;;;;2.40;0.90;;;;;;;;;;108268;1301;22914;-28
2022/09/03 04:04:09;;;;;;;3.20;1.00;;;;;;;;;;108267;1308;22562;-25
2022/09/03 04:06:34;;;;;;;1.20;0.70;;;;;;;;;;108241;1308;22544;-24
2022/09/03 04:09:00;;;;;;;1.50;0.80;;;;;;;;;;108274;1302;23214;-28
2022/09/03 04:11:26;;;;;;;1.60;0.60;;;;;;;;;;107934;1302;23333;-28
2022/09/03 04:13:52;;;;;;;2.60;1.10;;;;;;;;;;108292;1301;23448;-28
2022/09/03 04:16:18;;;;;;;1.50;0.80;;;;;;;;;;108264;1300;23113;-25
2022/09/03 04:18:44;;;;;;;3.10;1.60;;;;;;;;;;108058;1301;22444;-24
2022/09/03 04:21:10;;;;;;;2.20;0.90;;;;;;;;;;108158;1308;23219;-28
2022/09/03 04:23:37;;;;;;;2.00;1.00;;;;;;;;;;108315;1301;23193;-24
2022/09/03 04:26:03;;;;;;;1.50;0.90;;;;;;;;;;108291;1301;22803;-28
2022/09/03 04:28:29;;;;;;;3.80;1.10;;;;;;;;;;108315;1301;23326;-28
2022/09/03 04:30:54;;;;;;;2.50;1.60;;;;;;;;;;108276;1301;23090;-28
2022/09/03 04:33:20;;;;;;;3.20;1.50;;;;;;;;;;108314;1301;22803;-28
2022/09/03 04:35:45;;;;;;;1.30;1.00;;;;;;;;;;108322;1301;23303;-28
2022/09/03 04:38:11;;;;;;;2.10;1.20;;;;;;;;;;107778;1301;626411;-24
2022/09/03 04:40:36;;;;;;;3.10;0.90;;;;;;;;;;108228;1302;22784;-28
2022/09/03 04:43:02;;;;;;;1.80;1.20;;;;;;;;;;108184;1302;23163;-28
2022/09/03 04:45:28;;;;;;;2.00;0.90;;;;;;;;;;108213;1302;22461;-24
2022/09/03 04:47:55;;;;;;;2.00;1.00;;;;;;;;;;108293;1301;22706;-25
2022/09/03 04:50:22;;;;;;;4.60;1.40;;;;;;;;;;108257;1286;23299;-28
2022/09/03 04:52:48;;;;;;;4.10;1.10;;;;;;;;;;108242;1308;22538;-28
2022/09/03 04:55:13;;;;;;;4.50;0.90;;;;;;;;;;108157;1301;23306;-24
2022/09/03 04:57:41;;;;;;;2.30;1.30;;;;;;;;;;108336;1301;23235;-28
2022/09/03 05:00:10;;;;;;;3.10;1.50;;;;;;;;;;108275;1302;25240;-24
2022/09/03 05:02:36;;;;;;;2.40;1.00;;;;;;;;;;108310;1308;22545;-28
2022/09/03 05:05:02;;;;;;;2.20;1.10;;;;;;;;;;108244;1302;23207;-28
2022/09/03 05:07:37;;;;;;;2.30;1.50;;;;;;;;;;108306;1302;22535;-28
2022/09/03 05:10:05;;;;;;;5.30;0.90;;;;;;;;;;108302;1301;22436;-28
2022/09/03 05:12:32;;;;;;;3.40;1.20;;;;;;;;;;108192;1308;22615;-24
2022/09/03 05:14:58;;;;;;;3.00;1.60;;;;;;;;;;108284;1301;22463;-28
2022/09/03 05:17:24;;;;;;;4.80;1.20;;;;;;;;;;108292;1308;22452;-28
2022/09/03 05:19:49;;;;;;;2.50;1.10;;;;;;;;;;108327;1302;23184;-28
2022/09/03 05:22:20;;;;;;;8.00;1.50;;;;;;;;;;108325;1302;23072;-25
2022/09/03 05:24:45;;;;;;;4.00;0.90;;;;;;;;;;108215;1309;22549;-27
2022/09/03 05:27:11;;;;;;;17.10;1.80;;;;;;;;;;108269;1302;23242;-27
2022/09/03 05:29:38;;;;;;;5.70;1.30;;;;;;;;;;108199;1309;22557;-27
2022/09/03 05:32:03;;;;;;;3.20;1.40;;;;;;;;;;108313;1302;22554;-27
2022/09/03 05:34:28;;;;;;;3.60;1.30;;;;;;;;;;108271;1301;22531;-23
2022/09/03 05:36:57;;;;;;;5.50;1.30;;;;;;;;;;107915;1309;22314;-26
2022/09/03 05:39:22;;;;;;;3.40;1.90;;;;;;;;;;108197;1308;23295;-30
2022/09/03 05:41:51;;;;;;;5.20;1.60;;;;;;;;;;108205;1301;23408;-24
2022/09/03 05:44:16;;;;;;;3.60;1.00;;;;;;;;;;108279;1302;23119;-24
2022/09/03 05:46:43;;;;;;;5.20;1.40;;;;;;;;;;108277;1302;23238;-24
2022/09/03 05:49:10;;;;;;;2.80;1.30;;;;;;;;;;108272;1286;23290;-24
2022/09/03 05:51:36;;;;;;;2.80;1.30;;;;;;;;;;108247;1308;23176;-28
2022/09/03 05:54:02;;;;;;;1.40;0.90;;;;;;;;;;108233;1292;25148;-24
2022/09/03 05:56:28;;;;;;;2.70;1.50;;;;;;;;;;108234;1301;22841;-25
2022/09/03 05:58:55;;;;;;;2.30;1.30;;;;;;;;;;108218;1301;23740;-24
2022/09/03 06:01:22;;;;;;;2.90;1.20;;;;;;;;;;108220;1308;23291;-28
2022/09/03 06:03:48;;;;;;;6.70;1.40;;;;;;;;;;108088;1302;22518;-27
2022/09/03 06:06:14;;;;;;;3.00;1.20;;;;;;;;;;107219;1286;23316;-24
2022/09/03 06:08:40;;;;;;;2.30;0.90;;;;;;;;;;108037;1301;22457;-27
2022/09/03 06:11:06;;;;;;;6.10;1.10;;;;;;;;;;107863;1302;22533;-24
2022/09/03 06:13:32;;;;;;;4.20;2.00;;;;;;;;;;108034;1301;22515;-24
2022/09/03 06:15:58;;;;;;;1.50;1.30;;;;;;;;;;107874;1309;23234;-27
2022/09/03 06:18:24;;;;;;;2.40;1.00;;;;;;;;;;107963;1302;23162;-24
2022/09/03 06:20:53;;;;;;;8.80;1.20;;;;;;;;;;108245;1308;23325;-28
2022/09/03 06:23:19;;;;;;;5.10;1.90;;;;;;;;;;108126;1308;22613;-24
2022/09/03 06:25:44;;;;;;;2.60;1.50;;;;;;;;;;108248;1302;23139;-24
2022/09/03 06:28:10;;;;;;;3.20;1.10;;;;;;;;;;108266;1301;23363;-27
2022/09/03 06:30:36;;;;;;;5.90;1.80;;;;;;;;;;106891;1302;23162;-30
2022/09/03 06:33:01;;;;;;;2.50;1.30;;;;;;;;;;107574;1308;24578;-28
2022/09/03 06:35:27;;;;;;;2.10;1.00;;;;;;;;;;107904;1301;25207;-28
2022/09/03 06:37:52;;;;;;;1.50;1.10;;;;;;;;;;107884;1302;23287;-28
2022/09/03 06:40:21;;;;;;;10.10;1.50;;;;;;;;;;107486;1289;24747;-24
2022/09/03 06:42:50;;;;;;;3.50;1.50;;;;;;;;;;108251;1302;22593;-24
2022/09/03 06:45:17;;;;;;;2.30;1.40;;;;;;;;;;108132;1302;27099;-24
2022/09/03 06:47:42;;;;;;;2.70;1.10;;;;;;;;;;107780;1309;23200;-28
2022/09/03 06:50:08;;;;;;;4.50;1.20;;;;;;;;;;108032;1305;22539;-25
2022/09/03 06:52:34;;;;;;;5.90;1.80;;;;;;;;;;108256;1288;22560;-24
2022/09/03 06:54:59;;;;;;;35.50;1.90;;;;;;;;;;108043;1302;22554;-25
2022/09/03 06:57:25;;;;;;;7.90;1.40;;;;;;;;;;108126;1308;22690;-28
2022/09/03 06:59:53;;;;;;;4.70;2.20;;;;;;;;;;108095;1302;23158;-28
2022/09/03 07:02:21;;;;;;;3.60;1.70;;;;;;;;;;108142;1309;22570;-24
2022/09/03 07:04:48;;;;;;;4.00;2.00;;;;;;;;;;108063;1302;23045;-28
2022/09/03 07:07:15;;;;;;;6.40;1.80;;;;;;;;;;108189;1301;22965;-24
2022/09/03 07:09:40;;;;;;;7.30;1.80;;;;;;;;;;108186;1302;22821;-28
2022/09/03 07:12:06;;;;;;;2.40;1.20;;;;;;;;;;108175;1302;23212;-24
2022/09/03 07:14:32;;;;;;;4.50;1.40;;;;;;;;;;108192;1302;22538;-28
2022/09/03 07:16:57;;;;;;;2.10;1.20;;;;;;;;;;108260;1302;23247;-28
2022/09/03 07:19:23;;;;;;;3.30;1.30;;;;;;;;;;107997;1302;22534;-28
2022/09/03 07:21:49;;;;;;;4.00;1.60;;;;;;;;;;108142;1302;22546;-24
2022/09/03 07:24:14;;;;;;;8.40;1.60;;;;;;;;;;108132;1301;23584;-28
2022/09/03 07:26:43;;;;;;;3.50;1.70;;;;;;;;;;108281;1302;23167;-24
2022/09/03 07:29:10;;;;;;;3.20;2.40;;;;;;;;;;108101;1301;22548;-28
2022/09/03 07:31:36;;;;;;;4.10;1.60;;;;;;;;;;107973;1302;22531;-28
2022/09/03 07:34:04;;;;;;;2.30;1.20;;;;;;;;;;108040;1302;23177;-25
2022/09/03 07:36:30;;;;;;;3.20;1.40;;;;;;;;;;108111;1302;22527;-28
2022/09/03 07:38:56;;;;;;;2.20;1.90;;;;;;;;;;108125;1292;22415;-28
2022/09/03 07:41:22;;;;;;;4.70;1.40;;;;;;;;;;108117;1301;22448;-35
2022/09/03 07:43:47;;;;;;;4.40;2.00;;;;;;;;;;108197;1309;23171;-25
2022/09/03 07:46:13;;;;;;;7.70;1.50;;;;;;;;;;107181;1290;23179;-24
2022/09/03 07:48:39;;;;;;;1.20;1.00;;;;;;;;;;108184;1308;23205;-25
2022/09/03 07:51:05;;;;;;;4.00;1.70;;;;;;;;;;107681;1302;22946;-26
2022/09/03 07:53:30;;;;;;;2.50;1.70;;;;;;;;;;107952;1302;23215;-29
2022/09/03 07:55:59;;;;;;;3.20;1.80;;;;;;;;;;108107;1291;25292;-29
2022/09/03 07:58:27;;;;;;;3.10;1.40;;;;;;;;;;108181;1302;22733;-29
2022/09/03 08:00:54;;;;;;;5.40;2.10;;;;;;;;;;108149;1301;25223;-25
2022/09/03 08:03:20;;;;;;;3.20;1.60;;;;;;;;;;108115;1301;22540;-28
2022/09/03 08:05:45;;;;;;;2.40;1.70;;;;;;;;;;107590;1302;25282;-25
2022/09/03 08:08:13;;;;;;;4.70;2.20;;;;;;;;;;107274;1302;23269;-25
2022/09/03 08:10:39;;;;;;;3.60;1.70;;;;;;;;;;108116;1300;24586;-28
2022/09/03 08:13:05;;;;;;;3.40;1.60;;;;;;;;;;108240;1300;23399;-25
2022/09/03 08:15:31;;;;;;;6.80;2.50;;;;;;;;;;107988;1302;22528;-28
2022/09/03 08:17:58;;;;;;;2.40;1.20;;;;;;;;;;108163;1302;22558;-28
2022/09/03 08:20:23;;;;;;;2.20;1.40;;;;;;;;;;108231;1309;23300;-24
2022/09/03 08:22:50;;;;;;;3.30;1.80;;;;;;;;;;108230;1301;23182;-24
2022/09/03 08:25:15;;;;;;;3.10;1.20;;;;;;;;;;107778;1302;22538;-28
2022/09/03 08:27:41;;;;;;;4.10;2.40;;;;;;;;;;108221;1302;23216;-28
2022/09/03 08:30:10;;;;;;;3.50;2.00;;;;;;;;;;108252;1309;22477;-28
2022/09/03 08:32:37;;;;;;;7.60;1.90;;;;;;;;;;108203;1309;23197;-24
2022/09/03 08:35:02;;;;;;;4.60;2.30;;;;;;;;;;107952;1302;22923;-28
2022/09/03 08:37:28;;;;;;;3.30;1.60;;;;;;;;;;108177;1308;23284;-28
2022/09/03 08:39:54;;;;;;;2.70;1.50;;;;;;;;;;108215;1302;22531;-24
2022/09/03 08:42:23;;;;;;;1.50;1.30;;;;;;;;;;107463;1308;23558;-28
2022/09/03 08:44:50;;;;;;;2.40;1.20;;;;;;;;;;108162;1302;22508;-24
2022/09/03 08:47:16;;;;;;;9.70;2.00;;;;;;;;;;107890;1302;22579;-28
2022/09/03 08:49:45;;;;;;;5.00;2.70;;;;;;;;;;108114;1302;22552;-24
2022/09/03 08:52:14;;;;;;;4.20;1.50;;;;;;;;;;108149;1302;22534;-25
2022/09/03 08:54:40;;;;;;;17.00;2.20;;;;;;;;;;108213;1303;25203;-28
2022/09/03 08:57:05;;;;;;;9.50;2.80;;;;;;;;;;107914;1309;22541;-28
2022/09/03 08:59:31;;;;;;;3.90;1.20;;;;;;;;;;108217;1309;23040;-28
2022/09/03 09:02:00;;;;;;;9.00;1.50;;;;;;;;;;108113;1309;22542;-28
2022/09/03 09:04:30;;;;;;;5.80;1.80;;;;;;;;;;107912;1289;22565;-28
2022/09/03 09:06:57;;;;;;;5.10;1.70;;;;;;;;;;108210;1302;22537;-24
2022/09/03 09:09:26;;;;;;;11.40;1.90;;;;;;;;;;108010;1302;23224;-24
2022/09/03 09:11:58;;;;;;;4.10;2.20;;;;;;;;;;108054;1303;22944;-28
2022/09/03 09:14:27;;;;;;;4.00;2.00;;;;;;;;;;108021;1302;23383;-24
2022/09/03 09:16:57;;;;;;;3.80;2.50;;;;;;;;;;108121;1308;22543;-24
2022/09/03 09:19:24;;;;;;;6.10;2.80;;;;;;;;;;108077;1301;22322;-24
2022/09/03 09:21:52;;;;;;;2.20;1.30;;;;;;;;;;108230;1302;23262;-28
2022/09/03 09:24:20;;;;;;;2.20;1.70;;;;;;;;;;108040;1302;23746;-28
2022/09/03 09:26:48;;;;;;;1.80;1.40;;;;;;;;;;108117;1302;23608;-24
2022/09/03 09:29:13;;;;;;;6.90;1.60;;;;;;;;;;107723;1309;22617;-27
2022/09/03 09:31:39;;;;;;;10.80;2.40;;;;;;;;;;108180;1302;22530;-24
2022/09/03 09:34:05;;;;;;;2.50;1.40;;;;;;;;;;108105;1302;22574;-28
2022/09/03 09:36:32;;;;;;;11.20;1.40;;;;;;;;;;108115;1302;22604;-24
2022/09/03 09:39:06;;;;;;;2.60;1.80;;;;;;;;;;107682;1301;22526;-24
2022/09/03 09:41:32;;;;;;;1.80;1.10;;;;;;;;;;108129;1302;23186;-24
2022/09/03 09:44:00;;;;;;;2.60;1.80;;;;;;;;;;108094;1302;23161;-24
2022/09/03 09:46:26;;;;;;;2.70;1.50;;;;;;;;;;107988;1302;22545;-24
2022/09/03 09:48:53;;;;;;;7.00;1.50;;;;;;;;;;108189;1302;23144;-28
2022/09/03 09:51:21;;;;;;;2.70;1.50;;;;;;;;;;108107;1309;22523;-28
2022/09/03 09:53:46;;;;;;;3.70;1.10;;;;;;;;;;108080;1302;23446;-24
2022/09/03 09:56:22;;;;;;;8.00;1.40;;;;;;;;;;107494;1302;23448;-28
2022/09/03 09:58:48;;;;;;;1.90;1.40;;;;;;;;;;107703;1302;23326;-24
2022/09/03 10:01:15;;;;;;;2.50;1.60;;;;;;;;;;108026;1302;23235;-28
2022/09/03 10:03:47;;;;;;;2.20;1.20;;;;;;;;;;108033;1301;22508;-28
2022/09/03 10:08:42;;;;;;;8.30;4.50;;;;;;;;;;107386;1308;24230;-25
2022/09/03 10:11:08;;;;;;;6.10;3.20;;;;;;;;;;107990;1308;22557;-29
2022/09/03 10:13:35;;;;;;;4.00;2.10;;;;;;;;;;108141;1302;23599;-25
2022/09/03 10:16:01;;;;;;;1.90;1.10;;;;;;;;;;108036;1308;22456;-29
2022/09/03 10:18:31;;;;;;;3.80;2.20;;;;;;;;;;108154;1302;23273;-29
2022/09/03 10:21:03;;;;;;;2.20;1.30;;;;;;;;;;108162;1308;22558;-29
2022/09/03 10:23:31;;;;;;;2.20;1.10;;;;;;;;;;108115;1296;22514;-29
2022/09/03 10:26:06;;;;;;;2.90;1.50;;;;;;;;;;108059;1302;22529;-25
2022/09/03 10:28:36;;;;;;;4.10;1.50;;;;;;;;;;108113;1301;22515;-25
2022/09/03 10:31:05;;;;;;;5.50;3.00;;;;;;;;;;108131;1302;23240;-29
2022/09/03 10:33:33;;;;;;;3.10;1.70;;;;;;;;;;108068;1302;22877;-29
2022/09/03 10:36:02;;;;;;;2.60;2.00;;;;;;;;;;107621;1302;25415;-25
2022/09/03 10:38:32;;;;;;;9.90;2.30;;;;;;;;;;107874;1301;22529;-25
2022/09/03 10:41:02;;;;;;;2.80;1.80;;;;;;;;;;108128;1302;23382;-25
2022/09/03 10:43:36;;;;;;;2.60;1.80;;;;;;;;;;108011;1302;25366;-28
2022/09/03 10:46:05;;;;;;;2.60;2.00;;;;;;;;;;107961;1302;23267;-24
2022/09/03 10:48:35;;;;;;;3.10;1.80;;;;;;;;;;108150;1302;22969;-28
2022/09/03 10:51:04;;;;;;;3.90;2.60;;;;;;;;;;108139;1302;22988;-24
2022/09/03 10:53:33;;;;;;;3.10;2.10;;;;;;;;;;107872;1302;23167;-24
2022/09/03 10:56:03;;;;;;;5.70;1.60;;;;;;;;;;108086;1302;23211;-28
2022/09/03 10:58:37;;;;;;;4.20;1.40;;;;;;;;;;107956;1302;23140;-28
2022/09/03 11:01:03;;;;;;;2.60;1.60;;;;;;;;;;108052;1301;22635;-24
2022/09/03 11:03:32;;;;;;;5.60;1.70;;;;;;;;;;108107;1301;22571;-24
2022/09/03 11:06:01;;;;;;;14.10;1.50;;;;;;;;;;107973;1302;22536;-24
2022/09/03 11:08:28;;;;;;;6.20;2.00;;;;;;;;;;107612;1295;22106;-28
2022/09/03 11:10:56;;;;;;;2.70;1.80;;;;;;;;;;108155;1302;22318;-24
2022/09/03 11:13:24;;;;;;;4.50;2.20;;;;;;;;;;108133;1302;23400;-24
2022/09/03 11:15:51;;;;;;;3.20;2.00;;;;;;;;;;107911;1308;22536;-24
2022/09/03 11:18:25;;;;;;;2.80;1.80;;;;;;;;;;107978;1302;25352;-28
2022/09/03 11:20:53;;;;;;;2.00;1.60;;;;;;;;;;108177;1308;22688;-24
2022/09/03 11:23:19;;;;;;;3.00;1.10;;;;;;;;;;108158;1302;22524;-28
2022/09/03 11:25:47;;;;;;;5.20;2.10;;;;;;;;;;108123;1301;22581;-28
2022/09/03 11:28:18;;;;;;;4.10;1.60;;;;;;;;;;108249;1302;23255;-24
2022/09/03 11:30:48;;;;;;;7.50;1.40;;;;;;;;;;107837;1308;23291;-25
2022/09/03 11:33:14;;;;;;;2.70;1.20;;;;;;;;;;108127;1302;23162;-29
2022/09/03 11:35:40;;;;;;;3.60;1.50;;;;;;;;;;108134;1308;22399;-25
2022/09/03 11:38:20;;;;;;;3.00;1.60;;;;;;;;;;108137;1302;22530;-26
2022/09/03 11:40:49;;;;;;;5.70;2.00;;;;;;;;;;107430;1302;23147;-24
2022/09/03 11:43:18;;;;;;;4.60;1.90;;;;;;;;;;108141;1302;23015;-25
2022/09/03 11:45:43;;;;;;;2.10;1.80;;;;;;;;;;108170;1308;22543;-24
2022/09/03 11:48:12;;;;;;;2.90;1.80;;;;;;;;;;108080;1308;22538;-28
2022/09/03 11:50:38;;;;;;;3.60;2.40;;;;;;;;;;108212;1301;22579;-25
2022/09/03 11:53:06;;;;;;;7.10;1.90;;;;;;;;;;108198;1301;23310;-24
2022/09/03 11:55:33;;;;;;;8.00;2.20;;;;;;;;;;108071;1302;23136;-24
2022/09/03 11:58:09;;;;;;;3.80;1.70;;;;;;;;;;108143;1301;22518;-24
2022/09/03 12:00:37;;;;;;;4.90;1.50;;;;;;;;;;108172;1308;22527;-25
2022/09/03 12:03:02;;;;;;;2.70;1.60;;;;;;;;;;108175;1302;23249;-25
2022/09/03 12:05:33;;;;;;;2.50;1.70;;;;;;;;;;108133;1301;23184;-28
2022/09/03 12:08:02;;;;;;;4.30;1.50;;;;;;;;;;108127;1302;22597;-27
2022/09/03 12:10:31;;;;;;;2.70;1.70;;;;;;;;;;108202;1302;23289;-27
2022/09/03 12:12:59;;;;;;;2.00;1.20;;;;;;;;;;108114;1301;23240;-24
2022/09/03 12:15:28;;;;;;;4.60;1.70;;;;;;;;;;108195;1302;22504;-28
2022/09/03 12:20:27;;;;;;;3.00;2.60;;;;;;;;;;107606;1302;23135;-28
2022/09/03 12:22:54;;;;;;;5.50;2.50;;;;;;;;;;108059;1302;22763;-24
2022/09/03 12:25:19;;;;;;;4.10;2.50;;;;;;;;;;108063;1302;23273;-24
2022/09/03 12:27:45;;;;;;;3.20;2.80;;;;;;;;;;108164;1301;23859;-24
2022/09/03 12:30:14;;;;;;;4.40;1.40;;;;;;;;;;107710;1289;22535;-24
2022/09/03 12:32:40;;;;;;;2.60;1.60;;;;;;;;;;108099;1302;23183;-24
2022/09/03 12:35:09;;;;;;;4.30;1.80;;;;;;;;;;108205;1302;23094;-24
2022/09/03 12:37:36;;;;;;;3.50;1.80;;;;;;;;;;107880;1302;23200;-24
2022/09/03 12:40:02;;;;;;;12.70;1.80;;;;;;;;;;107278;1302;712625;-26
2022/09/03 12:42:29;;;;;;;8.50;2.10;;;;;;;;;;107853;1301;23235;-24
2022/09/03 12:44:54;;;;;;;4.60;2.30;;;;;;;;;;108141;1286;23731;-25
2022/09/03 12:47:21;;;;;;;8.10;3.20;;;;;;;;;;107741;1302;23162;-28
2022/09/03 12:49:49;;;;;;;5.00;3.30;;;;;;;;;;107849;1308;23320;-29
2022/09/03 12:52:19;;;;;;;3.10;1.60;;;;;;;;;;108162;1302;23367;-27
2022/09/03 12:54:47;;;;;;;10.70;9.50;;;;;;;;;;107943;1301;23299;-24
2022/09/03 12:57:13;;;;;;;7.00;6.30;;;;;;;;;;108074;1301;22937;-24
2022/09/03 12:59:39;;;;;;;3.30;1.90;;;;;;;;;;107995;1302;22098;-24
2022/09/03 13:02:11;;;;;;;14.00;2.10;;;;;;;;;;108121;1302;22602;-28
2022/09/03 13:04:36;;;;;;;3.00;1.60;;;;;;;;;;108072;1301;23218;-24
2022/09/03 13:07:03;;;;;;;3.00;1.70;;;;;;;;;;108022;1308;23223;-28
2022/09/03 13:09:29;;;;;;;3.20;2.20;;;;;;;;;;107985;1301;22550;-24
2022/09/03 13:11:55;;;;;;;3.50;1.80;;;;;;;;;;108112;1295;22549;-24
2022/09/03 13:14:21;;;;;;;2.40;1.90;;;;;;;;;;108161;1295;22597;-28
2022/09/03 13:16:50;;;;;;;2.80;1.50;;;;;;;;;;107548;1302;25473;-28
2022/09/03 13:19:35;;;;;;;7.10;1.40;;;;;;;;;;108190;1302;23653;-24
2022/09/03 13:22:05;;;;;;;6.80;2.10;;;;;;;;;;108211;1301;23628;-24
2022/09/03 13:24:34;;;;;;;3.70;1.90;;;;;;;;;;108213;1302;22595;-28
2022/09/03 13:27:04;;;;;;;3.60;1.60;;;;;;;;;;108122;1308;22517;-24
2022/09/03 13:29:34;;;;;;;3.60;2.50;;;;;;;;;;108279;1302;23338;-28
2022/09/03 13:32:03;;;;;;;2.00;1.50;;;;;;;;;;108151;1302;22582;-24
2022/09/03 13:34:30;;;;;;;3.40;1.70;;;;;;;;;;108237;1301;23243;-24
2022/09/03 13:36:58;;;;;;;3.70;2.10;;;;;;;;;;108304;1308;23213;-24
2022/09/03 13:39:27;;;;;;;5.80;1.90;;;;;;;;;;108155;1302;23344;-28
2022/09/03 13:41:54;;;;;;;7.70;1.70;;;;;;;;;;107885;1301;22538;-28
2022/09/03 13:44:23;;;;;;;4.10;2.20;;;;;;;;;;108204;1302;23255;-28
2022/09/03 13:46:51;;;;;;;3.10;1.90;;;;;;;;;;108243;1301;23309;-24
2022/09/03 13:51:50;;;;;;;6.70;1.50;;;;;;;;;;107835;1301;22537;-28
2022/09/03 13:54:19;;;;;;;7.40;1.60;;;;;;;;;;108074;1302;22617;-27
2022/09/03 13:56:48;;;;;;;3.10;2.00;;;;;;;;;;108004;1302;23727;-24
2022/09/03 13:59:17;;;;;;;23.00;2.70;;;;;;;;;;107961;1302;23744;-27
2022/09/03 14:01:46;;;;;;;2.60;1.70;;;;;;;;;;108115;1308;22577;-27
2022/09/03 14:04:13;;;;;;;2.70;1.60;;;;;;;;;;108124;1302;23349;-28
2022/09/03 14:06:41;;;;;;;4.90;1.90;;;;;;;;;;107788;1308;25263;-27
2022/09/03 14:09:11;;;;;;;3.70;2.10;;;;;;;;;;108046;1301;23333;-27
2022/09/03 14:11:43;;;;;;;4.60;2.30;;;;;;;;;;107951;1308;23372;-27
2022/09/03 14:14:11;;;;;;;2.70;1.70;;;;;;;;;;108137;1301;22547;-27
2022/09/03 14:16:38;;;;;;;3.70;2.10;;;;;;;;;;107722;1301;22570;-26
2022/09/03 14:19:09;;;;;;;3.70;2.40;;;;;;;;;;108096;1302;22538;-29
2022/09/03 14:21:38;;;;;;;3.00;1.50;;;;;;;;;;108138;1286;23208;-25
2022/09/03 14:24:04;;;;;;;7.60;1.70;;;;;;;;;;108026;1309;23245;-25
2022/09/03 14:26:30;;;;;;;4.50;1.70;;;;;;;;;;108133;1300;23304;-25
2022/09/03 14:28:57;;;;;;;5.00;2.50;;;;;;;;;;108088;1302;23313;-28
2022/09/03 14:31:24;;;;;;;4.60;2.20;;;;;;;;;;108237;1308;22570;-28
2022/09/03 14:33:54;;;;;;;3.40;1.90;;;;;;;;;;108105;1301;22530;-24
2022/09/03 14:36:22;;;;;;;3.30;1.60;;;;;;;;;;108154;1302;23334;-28
2022/09/03 14:38:51;;;;;;;3.10;2.00;;;;;;;;;;108001;1304;22529;-28